Time;durP1;ratioP1;P1;durP2;ratioP2;P2;SDS_P1;SDS_P2;PMS_P1;PMS_P2;Temp;Humidity;BMP_temperature;BMP_pressure;BME280_temperature;BME280_humidity;BME280_pressure;Samples;Min_cycle;Max_cycle;Signal;HPM_P1;HPM_P2
2021/05/05 00:00:25;;;;;;;1.77;1.20;;;7.90;87.10;;;;;;5074189;28;20483;-69
2021/05/05 00:02:53;;;;;;;1.30;1.20;;;8.00;87.80;;;;;;5074329;28;20425;-69
2021/05/05 00:05:19;;;;;;;1.63;1.53;;;7.90;87.10;;;;;;5073988;28;20455;-70
2021/05/05 00:07:45;;;;;;;3.80;1.73;;;7.90;86.50;;;;;;5073933;28;20938;-70
2021/05/05 00:10:13;;;;;;;1.97;1.30;;;7.90;86.10;;;;;;5074525;28;20499;-69
2021/05/05 00:12:41;;;;;;;2.20;1.93;;;7.80;85.80;;;;;;5074064;28;20453;-69
2021/05/05 00:15:10;;;;;;;3.13;1.53;;;7.70;85.90;;;;;;5073961;28;20480;-69
2021/05/05 00:17:38;;;;;;;3.43;1.23;;;7.80;86.50;;;;;;5073925;28;20444;-69
2021/05/05 00:20:06;;;;;;;1.70;1.60;;;7.80;86.70;;;;;;5073861;28;20468;-68
2021/05/05 00:22:32;;;;;;;1.90;1.73;;;7.70;86.60;;;;;;5073846;28;20453;-69
2021/05/05 00:24:59;;;;;;;4.97;1.63;;;7.70;86.80;;;;;;5073872;28;20451;-69
2021/05/05 00:27:25;;;;;;;1.40;1.30;;;7.70;86.80;;;;;;5073802;28;20445;-69
2021/05/05 00:29:52;;;;;;;2.60;1.53;;;7.70;87.10;;;;;;5073716;28;20468;-69
2021/05/05 00:32:18;;;;;;;2.20;1.47;;;7.70;86.90;;;;;;5073805;28;20445;-69
2021/05/05 00:34:45;;;;;;;2.93;1.50;;;7.70;87.10;;;;;;5073296;28;21055;-69
2021/05/05 00:37:11;;;;;;;4.63;2.07;;;7.70;86.30;;;;;;5072849;28;20448;-69
2021/05/05 00:39:37;;;;;;;3.67;1.90;;;7.70;86.20;;;;;;5074156;28;20464;-68
2021/05/05 00:42:04;;;;;;;4.20;1.97;;;7.70;86.40;;;;;;5073669;28;20804;-68
2021/05/05 00:44:31;;;;;;;3.23;2.60;;;7.60;86.00;;;;;;5073667;28;20443;-69
2021/05/05 00:46:57;;;;;;;4.80;1.50;;;7.60;86.00;;;;;;5073640;28;20440;-69
2021/05/05 00:49:24;;;;;;;4.23;1.93;;;7.50;85.80;;;;;;5073506;28;20448;-68
2021/05/05 00:51:51;;;;;;;3.37;2.27;;;7.50;86.00;;;;;;5073213;28;20456;-68
2021/05/05 00:54:17;;;;;;;4.70;1.70;;;7.50;86.60;;;;;;5073438;28;20487;-69
2021/05/05 00:56:45;;;;;;;4.90;1.90;;;7.50;86.70;;;;;;5073518;28;20783;-69
2021/05/05 00:59:12;;;;;;;5.60;1.90;;;7.50;86.70;;;;;;5073094;28;20448;-69
2021/05/05 01:01:39;;;;;;;3.40;1.93;;;7.50;86.70;;;;;;5073419;28;20464;-69
2021/05/05 01:04:06;;;;;;;4.17;1.67;;;7.50;86.70;;;;;;5073375;28;20482;-69
2021/05/05 01:06:32;;;;;;;7.63;2.17;;;7.50;86.50;;;;;;5073375;28;20502;-70
2021/05/05 01:08:59;;;;;;;2.60;1.60;;;7.50;86.70;;;;;;5073310;28;20452;-69
2021/05/05 01:11:27;;;;;;;5.10;2.20;;;7.50;86.70;;;;;;5073241;28;20460;-68
2021/05/05 01:13:53;;;;;;;3.23;2.00;;;7.50;86.40;;;;;;5073263;28;20469;-68
2021/05/05 01:16:19;;;;;;;4.57;2.10;;;7.50;86.40;;;;;;5073297;28;20841;-68
2021/05/05 01:18:46;;;;;;;6.23;2.37;;;7.50;86.70;;;;;;5073273;28;20447;-68
2021/05/05 01:21:13;;;;;;;3.43;1.53;;;7.40;86.30;;;;;;5073198;28;20464;-68
2021/05/05 01:23:39;;;;;;;5.97;2.43;;;7.40;86.50;;;;;;5072850;28;20965;-68
2021/05/05 01:26:06;;;;;;;2.50;2.30;;;7.40;86.40;;;;;;5072868;28;20444;-68
2021/05/05 01:28:32;;;;;;;4.23;2.17;;;7.40;86.50;;;;;;5073149;28;20850;-69
2021/05/05 01:30:58;;;;;;;4.70;2.23;;;7.40;86.50;;;;;;5073039;28;20464;-69
2021/05/05 01:33:25;;;;;;;4.13;1.73;;;7.40;86.40;;;;;;5073064;28;20837;-69
2021/05/05 01:35:51;;;;;;;7.47;2.50;;;7.40;87.00;;;;;;5073347;28;20452;-69
2021/05/05 01:38:18;;;;;;;3.03;1.70;;;7.50;86.40;;;;;;5073053;28;20449;-69
2021/05/05 01:40:45;;;;;;;2.37;2.17;;;7.50;86.70;;;;;;5072982;28;20469;-69
2021/05/05 01:43:12;;;;;;;3.90;2.50;;;7.50;86.50;;;;;;5073067;28;20533;-69
2021/05/05 01:45:39;;;;;;;3.73;2.40;;;7.50;86.00;;;;;;5072970;28;20445;-69
2021/05/05 01:48:07;;;;;;;7.43;3.20;;;7.60;86.20;;;;;;5073814;28;20452;-69
2021/05/05 01:50:34;;;;;;;2.67;2.30;;;7.50;85.70;;;;;;5076265;28;21029;-69
2021/05/05 01:53:00;;;;;;;4.43;2.50;;;7.60;86.00;;;;;;5076607;28;20456;-69
2021/05/05 01:55:27;;;;;;;4.60;2.60;;;7.60;85.90;;;;;;5076695;28;20432;-69
2021/05/05 01:57:54;;;;;;;2.73;2.27;;;7.50;85.60;;;;;;5076575;28;20443;-69
2021/05/05 02:00:23;;;;;;;4.27;2.70;;;7.60;86.00;;;;;;5076515;28;20461;-68
2021/05/05 02:02:49;;;;;;;2.87;2.27;;;7.50;86.40;;;;;;5076483;28;20448;-69
2021/05/05 02:05:15;;;;;;;5.33;2.50;;;7.60;85.90;;;;;;5076173;28;20440;-69
2021/05/05 02:07:42;;;;;;;4.10;2.40;;;7.50;85.80;;;;;;5076656;28;20440;-69
2021/05/05 02:10:11;;;;;;;6.23;3.03;;;7.50;85.50;;;;;;5076341;28;20726;-68
2021/05/05 02:12:38;;;;;;;3.37;3.03;;;7.40;85.70;;;;;;5076347;28;20440;-68
2021/05/05 02:15:07;;;;;;;5.10;2.70;;;7.40;86.30;;;;;;5076468;28;20487;-68
2021/05/05 02:17:33;;;;;;;3.13;2.20;;;7.40;86.10;;;;;;5076242;28;20443;-68
2021/05/05 02:19:59;;;;;;;4.10;2.73;;;7.40;86.20;;;;;;5076201;28;20472;-68
2021/05/05 02:22:25;;;;;;;3.50;2.23;;;7.40;86.60;;;;;;5076430;28;20440;-69
2021/05/05 02:24:52;;;;;;;4.27;2.03;;;7.40;86.70;;;;;;5075899;28;20957;-69
2021/05/05 02:27:18;;;;;;;3.33;2.43;;;7.40;86.80;;;;;;5076091;28;20448;-69
2021/05/05 02:29:45;;;;;;;8.20;2.47;;;7.30;86.70;;;;;;5076022;28;20864;-69
2021/05/05 02:32:14;;;;;;;3.80;2.73;;;7.20;87.00;;;;;;5075965;28;20445;-69
2021/05/05 02:34:41;;;;;;;7.63;3.10;;;7.20;87.30;;;;;;5075562;28;20981;-69
2021/05/05 02:37:09;;;;;;;3.47;2.57;;;7.20;87.40;;;;;;5075961;28;20856;-69
2021/05/05 02:39:35;;;;;;;3.03;2.70;;;7.10;87.60;;;;;;5075892;28;20469;-69
2021/05/05 02:42:02;;;;;;;6.10;3.13;;;7.10;88.00;;;;;;5075885;28;20445;-69
2021/05/05 02:44:28;;;;;;;4.77;3.17;;;7.10;88.30;;;;;;5075857;28;20454;-69
2021/05/05 02:46:55;;;;;;;10.30;3.80;;;7.00;88.50;;;;;;5075889;28;20778;-69
2021/05/05 02:49:21;;;;;;;5.40;2.97;;;7.00;88.70;;;;;;5077031;28;20531;-68
2021/05/05 02:51:47;;;;;;;6.17;3.33;;;7.00;88.70;;;;;;5076878;28;20460;-69
2021/05/05 02:54:14;;;;;;;3.93;3.33;;;7.00;89.00;;;;;;5075653;28;20935;-69
2021/05/05 02:56:40;;;;;;;3.60;3.30;;;6.90;89.20;;;;;;5075575;28;20449;-70
2021/05/05 02:59:06;;;;;;;6.90;2.83;;;6.90;89.40;;;;;;5075459;28;20444;-70
2021/05/05 03:01:32;;;;;;;3.73;3.43;;;6.90;89.40;;;;;;5076069;28;20465;-69
2021/05/05 03:03:59;;;;;;;8.33;3.73;;;7.00;89.50;;;;;;5075547;28;20494;-69
2021/05/05 03:06:27;;;;;;;9.63;3.50;;;7.00;89.80;;;;;;5076364;28;20424;-69
2021/05/05 03:08:53;;;;;;;5.90;3.43;;;6.90;89.80;;;;;;5075986;28;20464;-69
2021/05/05 03:11:19;;;;;;;8.13;3.63;;;6.90;89.80;;;;;;5076160;28;20471;-68
2021/05/05 03:13:45;;;;;;;6.90;3.60;;;7.00;90.00;;;;;;5076794;28;20489;-69
2021/05/05 03:16:12;;;;;;;5.17;3.40;;;7.00;89.90;;;;;;5075158;28;20969;-69
2021/05/05 03:18:38;;;;;;;10.93;3.53;;;7.00;89.50;;;;;;5075519;28;20441;-69
2021/05/05 03:21:06;;;;;;;8.43;3.67;;;7.00;90.00;;;;;;5074993;28;20464;-69
2021/05/05 03:23:32;;;;;;;4.87;3.40;;;7.00;90.00;;;;;;5075040;28;20934;-68
2021/05/05 03:25:58;;;;;;;6.93;3.50;;;7.00;89.70;;;;;;5074996;28;20444;-68
2021/05/05 03:28:24;;;;;;;3.93;3.53;;;7.00;89.80;;;;;;5074999;28;20460;-68
2021/05/05 03:30:51;;;;;;;6.30;4.10;;;7.00;90.00;;;;;;5074562;28;20495;-68
2021/05/05 03:33:17;;;;;;;3.57;3.30;;;7.00;90.00;;;;;;5074805;28;20582;-68
2021/05/05 03:35:43;;;;;;;6.30;4.27;;;6.90;90.00;;;;;;5074824;28;20451;-69
2021/05/05 03:38:10;;;;;;;6.07;4.37;;;6.90;90.20;;;;;;5075273;28;20510;-69
2021/05/05 03:40:37;;;;;;;7.23;4.20;;;6.90;90.20;;;;;;5074655;28;20464;-69
2021/05/05 03:43:03;;;;;;;5.07;3.63;;;6.90;90.20;;;;;;5074282;28;20820;-69
2021/05/05 03:45:30;;;;;;;7.60;4.93;;;6.90;90.20;;;;;;5074508;28;20452;-69
2021/05/05 03:47:57;;;;;;;9.87;5.60;;;6.90;90.20;;;;;;5074731;28;20459;-69
2021/05/05 03:50:23;;;;;;;8.73;4.53;;;6.90;90.20;;;;;;5074280;28;20503;-68
2021/05/05 03:52:49;;;;;;;7.13;4.97;;;7.00;90.20;;;;;;5074426;28;20816;-68
2021/05/05 03:55:17;;;;;;;8.10;4.20;;;6.90;90.10;;;;;;5074263;28;20483;-69
2021/05/05 03:57:44;;;;;;;5.80;4.80;;;6.90;90.20;;;;;;5074176;28;20943;-69
2021/05/05 04:00:11;;;;;;;10.37;4.77;;;6.90;90.10;;;;;;5073915;28;20989;-69
2021/05/05 04:02:37;;;;;;;4.63;4.23;;;7.00;90.10;;;;;;5074211;28;20451;-69
2021/05/05 04:05:05;;;;;;;7.10;5.50;;;6.90;90.10;;;;;;5074188;28;20457;-68
2021/05/05 04:07:31;;;;;;;6.43;4.30;;;6.90;90.20;;;;;;5074123;28;20452;-69
2021/05/05 04:09:57;;;;;;;6.20;5.07;;;6.80;90.10;;;;;;5074010;28;20468;-68
2021/05/05 04:12:28;;;;;;;5.73;5.00;;;6.80;90.20;;;;;;5073994;28;20551;-69
2021/05/05 04:15:05;;;;;;;7.00;4.70;;;6.80;90.20;;;;;;5073637;28;20980;-69
2021/05/05 04:17:31;;;;;;;6.10;3.73;;;6.80;90.30;;;;;;5073941;28;20433;-69
2021/05/05 04:19:58;;;;;;;8.20;4.47;;;6.80;90.30;;;;;;5073914;28;20514;-68
2021/05/05 04:22:26;;;;;;;4.97;4.47;;;6.80;90.40;;;;;;5073569;28;20964;-69
2021/05/05 04:24:53;;;;;;;6.53;4.93;;;6.80;90.40;;;;;;5073794;28;20441;-70
2021/05/05 04:27:19;;;;;;;9.13;4.63;;;6.90;90.40;;;;;;5073704;28;20444;-70
2021/05/05 04:29:47;;;;;;;6.57;4.53;;;6.90;90.40;;;;;;5073382;28;20468;-69
2021/05/05 04:32:14;;;;;;;5.93;3.93;;;7.00;90.50;;;;;;5073791;28;20433;-69
2021/05/05 04:34:41;;;;;;;7.37;5.27;;;7.00;90.50;;;;;;5073626;28;20476;-69
2021/05/05 04:37:07;;;;;;;7.13;5.37;;;7.00;90.50;;;;;;5073698;28;20518;-70
2021/05/05 04:39:34;;;;;;;7.47;4.80;;;7.10;90.50;;;;;;5073269;28;20969;-69
2021/05/05 04:42:00;;;;;;;5.93;4.40;;;7.10;90.50;;;;;;5073376;28;20903;-70
2021/05/05 04:44:27;;;;;;;8.50;5.33;;;7.10;90.20;;;;;;5073520;28;20451;-70
2021/05/05 04:46:54;;;;;;;8.50;5.53;;;7.20;90.20;;;;;;5073525;28;20445;-70
2021/05/05 04:49:20;;;;;;;6.40;4.47;;;7.20;90.30;;;;;;5073395;28;20448;-69
2021/05/05 04:51:46;;;;;;;9.87;5.17;;;7.20;90.10;;;;;;5073294;28;20460;-70
2021/05/05 04:54:14;;;;;;;6.10;4.40;;;7.20;90.20;;;;;;5073382;28;20484;-70
2021/05/05 04:56:41;;;;;;;9.53;4.70;;;7.30;90.20;;;;;;5073456;28;20425;-69
2021/05/05 04:59:07;;;;;;;9.60;4.50;;;7.40;90.20;;;;;;5073375;28;20440;-69
2021/05/05 05:01:33;;;;;;;7.93;5.37;;;7.40;90.10;;;;;;5073302;28;20471;-69
2021/05/05 05:04:00;;;;;;;13.23;5.13;;;7.50;90.20;;;;;;5073376;28;20441;-69
2021/05/05 05:06:26;;;;;;;8.20;4.57;;;7.50;90.10;;;;;;5073537;28;20444;-70
2021/05/05 05:08:53;;;;;;;12.63;5.00;;;7.50;89.50;;;;;;5073171;28;20460;-70
2021/05/05 05:11:19;;;;;;;9.80;5.40;;;7.50;89.70;;;;;;5073170;28;20989;-70
2021/05/05 05:13:45;;;;;;;7.27;4.70;;;7.50;89.80;;;;;;5072987;28;20875;-69
2021/05/05 05:16:11;;;;;;;14.23;5.00;;;7.50;89.90;;;;;;5072912;28;20929;-70
2021/05/05 05:18:38;;;;;;;11.90;5.20;;;7.50;90.00;;;;;;5073337;28;20444;-70
2021/05/05 05:21:05;;;;;;;5.87;4.63;;;7.50;90.00;;;;;;5072862;28;20974;-70
2021/05/05 05:23:33;;;;;;;7.57;5.63;;;7.40;90.10;;;;;;5074782;28;20474;-70
2021/05/05 05:25:59;;;;;;;7.83;5.63;;;7.50;90.10;;;;;;5077178;28;20455;-70
2021/05/05 05:28:26;;;;;;;12.17;6.07;;;7.50;90.10;;;;;;5077181;28;20437;-71
2021/05/05 05:30:52;;;;;;;6.83;5.03;;;7.50;90.10;;;;;;5076670;28;20468;-70
2021/05/05 05:33:19;;;;;;;13.30;5.63;;;7.70;90.10;;;;;;5077161;28;20433;-70
2021/05/05 05:35:45;;;;;;;9.73;5.20;;;7.70;90.00;;;;;;5077199;28;20448;-70
2021/05/05 05:38:12;;;;;;;6.03;5.43;;;7.80;89.50;;;;;;5077581;28;20444;-69
2021/05/05 05:40:39;;;;;;;11.67;5.80;;;7.80;89.60;;;;;;5076848;28;20471;-71
2021/05/05 05:43:06;;;;;;;11.70;5.10;;;7.90;89.20;;;;;;5076918;28;20444;-70
2021/05/05 05:45:33;;;;;;;6.80;5.60;;;7.90;88.70;;;;;;5076805;28;20436;-70
2021/05/05 05:47:59;;;;;;;12.03;5.33;;;8.00;89.50;;;;;;5076391;28;20456;-70
2021/05/05 05:50:26;;;;;;;7.87;5.40;;;8.10;89.10;;;;;;5076754;28;20487;-69
2021/05/05 05:52:52;;;;;;;8.67;5.00;;;8.10;89.40;;;;;;5076948;28;20497;-69
2021/05/05 05:55:19;;;;;;;6.47;5.30;;;8.00;88.60;;;;;;5076695;28;20487;-69
2021/05/05 05:57:48;;;;;;;9.93;5.40;;;8.00;89.20;;;;;;5076356;28;20467;-69
2021/05/05 06:00:17;;;;;;;10.03;5.30;;;8.00;88.90;;;;;;5076254;28;20522;-69
2021/05/05 06:02:44;;;;;;;11.80;6.20;;;8.10;88.20;;;;;;5076458;28;20440;-70
2021/05/05 06:05:11;;;;;;;14.43;7.47;;;8.10;88.50;;;;;;5076138;28;20440;-70
2021/05/05 06:07:38;;;;;;;14.57;6.17;;;8.20;88.10;;;;;;5076264;28;20441;-70
2021/05/05 06:10:06;;;;;;;11.20;5.87;;;8.20;87.40;;;;;;5076395;28;20468;-70
2021/05/05 06:12:34;;;;;;;9.73;6.07;;;8.20;87.70;;;;;;5076522;28;20566;-70
2021/05/05 06:15:00;;;;;;;7.33;5.20;;;8.20;87.30;;;;;;5076262;28;20468;-70
2021/05/05 06:17:26;;;;;;;13.67;5.70;;;8.20;87.80;;;;;;5076181;28;20811;-69
2021/05/05 06:19:53;;;;;;;9.50;6.43;;;8.40;88.70;;;;;;5076291;28;20472;-69
2021/05/05 06:22:19;;;;;;;11.30;6.53;;;8.40;87.30;;;;;;5076302;28;20622;-69
2021/05/05 06:24:46;;;;;;;16.50;5.97;;;8.50;88.50;;;;;;5076100;28;20444;-69
2021/05/05 06:27:12;;;;;;;10.80;6.60;;;8.50;87.60;;;;;;5076111;28;20585;-69
2021/05/05 06:29:39;;;;;;;10.10;5.80;;;8.60;87.00;;;;;;5075945;28;20467;-69
2021/05/05 06:32:06;;;;;;;7.07;6.13;;;8.80;86.30;;;;;;5075830;28;20456;-69
2021/05/05 06:34:32;;;;;;;8.30;5.53;;;8.90;87.00;;;;;;5075780;28;20489;-69
2021/05/05 06:36:59;;;;;;;9.70;5.13;;;9.00;84.60;;;;;;5075940;28;20457;-69
2021/05/05 06:39:25;;;;;;;9.87;5.60;;;9.00;84.00;;;;;;5075740;28;20973;-69
2021/05/05 06:41:51;;;;;;;11.63;6.27;;;9.10;83.30;;;;;;5075901;28;20444;-69
2021/05/05 06:44:18;;;;;;;8.03;5.10;;;9.10;82.50;;;;;;5076666;28;20779;-69
2021/05/05 06:46:45;;;;;;;9.27;5.00;;;9.20;82.10;;;;;;5075519;28;20445;-69
2021/05/05 06:49:12;;;;;;;5.90;4.00;;;9.30;80.10;;;;;;5075626;28;20448;-69
2021/05/05 06:51:38;;;;;;;6.13;3.80;;;9.20;78.40;;;;;;5075592;28;20482;-69
2021/05/05 06:54:06;;;;;;;4.00;3.20;;;9.10;79.50;;;;;;5075567;28;20487;-69
2021/05/05 06:56:33;;;;;;;5.50;3.10;;;9.10;78.50;;;;;;5075548;28;20480;-69
2021/05/05 06:58:59;;;;;;;5.63;3.20;;;9.00;77.00;;;;;;5075598;28;20448;-69
2021/05/05 07:01:26;;;;;;;4.43;4.00;;;8.90;79.00;;;;;;5075388;28;20525;-69
2021/05/05 07:03:53;;;;;;;5.13;4.00;;;8.70;78.80;;;;;;5075539;28;20503;-69
2021/05/05 07:06:19;;;;;;;5.03;3.17;;;8.60;79.50;;;;;;5075380;28;20436;-69
2021/05/05 07:08:45;;;;;;;8.63;3.80;;;8.60;80.70;;;;;;5075442;28;20425;-69
2021/05/05 07:11:12;;;;;;;5.53;3.90;;;8.50;81.10;;;;;;5074894;28;20986;-69
2021/05/05 07:13:38;;;;;;;5.50;4.60;;;8.60;82.10;;;;;;5075249;28;20451;-69
2021/05/05 07:16:05;;;;;;;4.77;3.70;;;8.50;82.10;;;;;;5074905;28;20434;-69
2021/05/05 07:18:31;;;;;;;11.73;4.90;;;8.50;82.30;;;;;;5075153;28;20440;-69
2021/05/05 07:20:58;;;;;;;6.30;4.93;;;8.50;83.70;;;;;;5075116;28;20484;-69
2021/05/05 07:23:25;;;;;;;5.20;4.40;;;8.40;83.30;;;;;;5075171;28;20467;-69
2021/05/05 07:25:51;;;;;;;7.83;4.70;;;8.40;83.30;;;;;;5075104;28;20425;-69
2021/05/05 07:28:17;;;;;;;4.40;4.00;;;8.40;83.30;;;;;;5075049;28;20433;-69
2021/05/05 07:30:43;;;;;;;6.53;5.10;;;8.30;84.10;;;;;;5074929;28;20498;-69
2021/05/05 07:33:11;;;;;;;3.80;3.33;;;8.20;84.00;;;;;;5074900;28;20429;-69
2021/05/05 07:35:37;;;;;;;5.23;4.47;;;8.10;83.50;;;;;;5074799;28;20469;-69
2021/05/05 07:38:21;;;;;;;4.60;3.40;;;8.00;84.90;;;;;;5074703;28;20873;-69
2021/05/05 07:41:35;;;;;;;3.40;3.10;;;8.00;87.30;;;;;;5074662;28;20529;-69
2021/05/05 07:46:48;;;;;;;2.80;2.60;;;8.00;86.10;;;;;;5074128;28;20503;-67
2021/05/05 07:49:17;;;;;;;3.30;3.10;;;8.00;86.40;;;;;;5074541;28;20425;-67
2021/05/05 07:51:44;;;;;;;3.37;3.07;;;8.00;87.20;;;;;;5074190;28;20484;-67
2021/05/05 07:54:11;;;;;;;3.60;3.30;;;8.10;87.10;;;;;;5074402;28;20469;-68
2021/05/05 07:56:38;;;;;;;2.73;2.30;;;8.00;87.90;;;;;;5074552;28;20416;-68
2021/05/05 07:59:04;;;;;;;2.90;1.90;;;8.00;86.80;;;;;;5074318;28;20425;-69
2021/05/05 08:01:32;;;;;;;3.10;1.50;;;7.90;86.10;;;;;;5074275;28;20465;-69
2021/05/05 08:03:59;;;;;;;3.73;2.27;;;7.80;87.00;;;;;;5073950;28;20488;-69
2021/05/05 08:06:26;;;;;;;1.90;1.70;;;7.70;87.60;;;;;;5074166;28;20486;-69
2021/05/05 08:08:53;;;;;;;2.90;2.70;;;7.70;87.40;;;;;;5073801;28;20456;-69
2021/05/05 08:11:20;;;;;;;2.60;2.40;;;7.80;88.70;;;;;;5074309;28;20465;-69
2021/05/05 08:13:47;;;;;;;2.67;2.37;;;7.90;88.50;;;;;;5074010;28;20433;-69
2021/05/05 08:16:14;;;;;;;2.00;1.80;;;7.90;87.60;;;;;;5074242;28;20853;-69
2021/05/05 08:18:41;;;;;;;3.60;2.40;;;7.80;86.80;;;;;;5074198;28;20432;-69
2021/05/05 08:21:08;;;;;;;3.07;2.30;;;7.90;87.10;;;;;;5073835;28;20460;-69
2021/05/05 08:23:34;;;;;;;2.23;1.93;;;8.00;88.20;;;;;;5073930;28;20529;-69
2021/05/05 08:26:01;;;;;;;4.57;2.50;;;8.10;87.20;;;;;;5073578;28;20486;-67
2021/05/05 08:28:28;;;;;;;3.80;2.30;;;8.30;86.20;;;;;;5073749;28;20446;-67
2021/05/05 08:30:54;;;;;;;2.43;2.27;;;8.60;86.10;;;;;;5073801;28;20471;-67
2021/05/05 08:33:21;;;;;;;4.07;2.63;;;8.80;86.50;;;;;;5073766;28;20443;-67
2021/05/05 08:35:47;;;;;;;5.07;2.83;;;9.00;83.50;;;;;;5073941;28;20465;-67
2021/05/05 08:38:13;;;;;;;6.03;3.27;;;9.10;82.50;;;;;;5073717;28;20497;-68
2021/05/05 08:40:40;;;;;;;5.10;2.90;;;9.10;82.90;;;;;;5073267;28;21001;-67
2021/05/05 08:43:06;;;;;;;7.10;3.23;;;9.10;82.90;;;;;;5073682;28;20401;-67
2021/05/05 08:45:34;;;;;;;5.17;3.00;;;9.20;83.40;;;;;;5073623;28;20436;-67
2021/05/05 08:48:01;;;;;;;7.27;3.47;;;9.40;83.40;;;;;;5073322;28;20849;-67
2021/05/05 08:50:30;;;;;;;7.97;2.60;;;9.50;79.40;;;;;;5073204;28;20484;-69
2021/05/05 08:52:57;;;;;;;5.20;2.90;;;9.60;79.00;;;;;;5073477;28;20451;-69
2021/05/05 08:55:25;;;;;;;6.50;3.00;;;9.80;81.60;;;;;;5073418;28;20464;-69
2021/05/05 08:57:52;;;;;;;3.70;2.73;;;10.00;77.80;;;;;;5072594;28;20809;-69
2021/05/05 09:00:22;;;;;;;4.90;3.07;;;10.10;76.00;;;;;;5073491;28;20473;-69
2021/05/05 09:02:49;;;;;;;8.70;2.90;;;10.10;74.60;;;;;;5073182;28;20828;-69
2021/05/05 09:05:16;;;;;;;7.67;2.93;;;10.20;76.00;;;;;;5073145;28;20793;-69
2021/05/05 09:07:44;;;;;;;4.33;3.27;;;10.20;74.90;;;;;;5073365;28;20491;-69
2021/05/05 09:10:12;;;;;;;7.90;3.00;;;10.00;73.10;;;;;;5073625;28;20515;-69
2021/05/05 09:12:40;;;;;;;5.57;3.50;;;9.90;73.70;;;;;;5073289;28;20507;-69
2021/05/05 09:15:10;;;;;;;9.40;3.30;;;9.70;75.70;;;;;;5073179;28;20532;-70
2021/05/05 09:17:39;;;;;;;6.87;2.90;;;9.80;77.10;;;;;;5073427;28;20799;-69
2021/05/05 09:20:18;;;;;;;8.13;3.10;;;10.10;72.60;;;;;;5073124;28;20472;-69
2021/05/05 09:22:48;;;;;;;4.07;2.70;;;10.20;72.70;;;;;;5073177;28;20447;-69
2021/05/05 09:25:18;;;;;;;6.10;2.77;;;10.40;74.80;;;;;;5073346;28;20428;-69
2021/05/05 09:28:04;;;;;;;6.30;2.40;;;10.80;72.90;;;;;;5073249;28;20436;-69
2021/05/05 09:30:31;;;;;;;4.53;2.50;;;11.00;68.30;;;;;;5072955;28;20521;-69
2021/05/05 09:32:57;;;;;;;4.77;2.57;;;11.00;67.30;;;;;;5073068;28;20440;-69
2021/05/05 09:35:30;;;;;;;7.27;3.43;;;11.10;70.50;;;;;;5072762;28;20472;-69
2021/05/05 09:37:58;;;;;;;7.53;3.43;;;10.90;66.50;;;;;;5073104;28;20482;-69
2021/05/05 09:40:25;;;;;;;5.03;3.10;;;11.00;67.00;;;;;;5073022;28;20877;-69
2021/05/05 09:42:52;;;;;;;7.60;3.20;;;11.00;66.90;;;;;;5072648;28;20440;-69
2021/05/05 09:45:18;;;;;;;6.60;3.50;;;11.00;67.60;;;;;;5073056;28;20432;-69
2021/05/05 09:47:53;;;;;;;4.77;3.40;;;11.00;66.70;;;;;;5073022;28;20444;-69
2021/05/05 09:50:36;;;;;;;6.30;3.37;;;11.10;64.80;;;;;;5072731;28;20499;-69
2021/05/05 09:53:16;;;;;;;8.90;3.70;;;11.20;65.10;;;;;;5072909;28;20463;-69
2021/05/05 09:55:43;;;;;;;4.73;3.50;;;11.20;63.50;;;;;;5072606;28;20969;-69
2021/05/05 09:58:27;;;;;;;6.33;3.50;;;11.20;63.20;;;;;;5072552;28;20926;-69
2021/05/05 10:01:10;;;;;;;3.93;2.90;;;11.10;63.50;;;;;;5072813;28;20553;-69
2021/05/05 10:03:37;;;;;;;5.47;3.50;;;11.30;63.50;;;;;;5072850;28;20449;-69
2021/05/05 10:06:18;;;;;;;5.90;3.43;;;11.50;63.30;;;;;;5072784;28;20447;-69
2021/05/05 10:08:44;;;;;;;5.10;2.90;;;11.70;64.10;;;;;;5072982;28;20449;-70
2021/05/05 10:11:11;;;;;;;4.20;3.13;;;11.80;61.70;;;;;;5076188;28;20456;-69
2021/05/05 10:13:39;;;;;;;7.13;3.37;;;11.70;62.40;;;;;;5076424;28;20437;-69
2021/05/05 10:16:06;;;;;;;4.80;3.13;;;11.50;61.90;;;;;;5076378;28;20468;-70
2021/05/05 10:18:33;;;;;;;6.43;3.60;;;11.20;60.30;;;;;;5076304;28;20817;-69
2021/05/05 10:20:59;;;;;;;3.70;3.13;;;11.30;61.30;;;;;;5076115;28;20482;-69
2021/05/05 10:23:27;;;;;;;6.20;3.73;;;11.30;60.50;;;;;;5075915;28;20964;-71
2021/05/05 10:25:53;;;;;;;7.50;3.20;;;11.20;61.60;;;;;;5076622;28;20451;-68
2021/05/05 10:28:19;;;;;;;7.83;2.70;;;11.00;60.60;;;;;;5076088;28;20448;-68
2021/05/05 10:30:47;;;;;;;4.27;2.70;;;11.10;61.40;;;;;;5075971;28;20468;-68
2021/05/05 10:33:18;;;;;;;4.07;2.50;;;11.30;60.80;;;;;;5075801;28;20512;-68
2021/05/05 10:35:44;;;;;;;4.30;2.13;;;11.60;59.60;;;;;;5076161;28;20461;-68
2021/05/05 10:38:34;;;;;;;5.67;2.70;;;11.70;58.20;;;;;;5075907;28;20445;-69
2021/05/05 10:41:08;;;;;;;6.40;2.10;;;11.80;59.90;;;;;;5076106;28;20467;-68
2021/05/05 10:43:48;;;;;;;4.13;2.53;;;12.10;58.10;;;;;;5075831;28;20448;-68
2021/05/05 10:46:28;;;;;;;3.63;2.03;;;12.50;58.30;;;;;;5075793;28;20494;-68
2021/05/05 10:49:12;;;;;;;7.67;2.23;;;12.60;57.40;;;;;;5075909;28;20480;-68
2021/05/05 10:51:59;;;;;;;4.90;2.23;;;12.40;55.30;;;;;;5075299;28;20483;-69
2021/05/05 10:54:53;;;;;;;7.03;2.03;;;12.80;54.50;;;;;;5075555;28;20461;-68
2021/05/05 10:57:21;;;;;;;4.27;1.87;;;13.00;53.60;;;;;;5075600;28;20828;-69
2021/05/05 11:00:10;;;;;;;6.27;2.20;;;13.20;54.90;;;;;;5075261;28;20464;-68
2021/05/05 11:02:52;;;;;;;5.50;2.37;;;13.20;53.00;;;;;;5075524;28;20528;-68
2021/05/05 11:05:20;;;;;;;4.37;2.50;;;13.10;53.40;;;;;;5075487;28;20429;-68
2021/05/05 11:07:48;;;;;;;8.67;2.90;;;12.80;53.60;;;;;;5075486;28;20845;-68
2021/05/05 11:10:49;;;;;;;6.70;2.37;;;12.90;54.50;;;;;;5075138;28;21013;-68
2021/05/05 11:13:37;;;;;;;4.30;2.50;;;12.90;55.10;;;;;;5076060;28;20436;-68
2021/05/05 11:16:04;;;;;;;3.00;2.43;;;13.10;55.60;;;;;;5076235;28;20559;-68
2021/05/05 11:18:47;;;;;;;7.47;2.80;;;13.20;52.40;;;;;;5075378;28;20449;-68
2021/05/05 11:21:39;;;;;;;6.10;3.00;;;12.80;53.20;;;;;;5074978;28;20794;-68
2021/05/05 11:24:34;;;;;;;4.60;2.83;;;12.60;53.50;;;;;;5067458;28;20449;-68
2021/05/05 11:27:02;;;;;;;2.57;1.70;;;12.20;52.80;;;;;;5075463;28;20432;-68
2021/05/05 11:29:37;;;;;;;3.90;2.47;;;11.60;57.30;;;;;;5075213;28;20425;-68
2021/05/05 11:32:09;;;;;;;4.77;2.00;;;10.80;64.10;;;;;;5075154;28;20431;-68
2021/05/05 11:34:37;;;;;;;4.50;1.70;;;10.60;64.20;;;;;;5075234;28;21021;-68
2021/05/05 11:37:10;;;;;;;5.43;3.03;;;10.80;64.30;;;;;;5075345;28;20437;-68
2021/05/05 11:39:37;;;;;;;5.47;2.57;;;11.70;67.30;;;;;;5074843;28;20796;-68
2021/05/05 11:42:07;;;;;;;6.30;2.53;;;13.20;62.80;;;;;;5074532;28;20512;-69
2021/05/05 11:44:38;;;;;;;6.87;2.43;;;14.70;57.20;;;;;;5075183;28;20536;-69
2021/05/05 11:47:07;;;;;;;5.73;2.80;;;15.70;50.00;;;;;;5074953;28;20433;-69
2021/05/05 11:49:35;;;;;;;6.57;2.67;;;16.30;51.90;;;;;;5075730;28;20429;-69
2021/05/05 11:52:25;;;;;;;5.67;2.03;;;16.60;45.70;;;;;;5074596;28;20805;-69
2021/05/05 11:54:55;;;;;;;3.53;1.90;;;16.00;45.00;;;;;;5074472;28;20472;-69
2021/05/05 11:57:23;;;;;;;8.07;2.43;;;15.50;46.40;;;;;;5074542;28;20898;-69
2021/05/05 11:59:50;;;;;;;2.10;1.30;;;15.10;47.30;;;;;;5074621;28;20468;-69
2021/05/05 12:02:18;;;;;;;2.60;1.60;;;14.60;46.50;;;;;;5074520;28;20449;-69
2021/05/05 12:04:45;;;;;;;5.23;1.87;;;14.80;46.90;;;;;;5074673;28;20453;-69
2021/05/05 12:07:12;;;;;;;4.17;1.83;;;14.60;46.30;;;;;;5074499;28;20773;-69
2021/05/05 12:09:40;;;;;;;1.67;1.10;;;14.80;45.90;;;;;;5074410;28;20457;-69
2021/05/05 12:12:27;;;;;;;3.40;1.03;;;14.10;48.30;;;;;;5074411;28;20463;-69
2021/05/05 12:14:59;;;;;;;3.10;0.80;;;13.00;53.00;;;;;;5074437;28;20567;-69
2021/05/05 12:17:31;;;;;;;2.50;0.90;;;12.50;55.20;;;;;;5074533;28;20429;-69
2021/05/05 12:20:01;;;;;;;2.57;1.00;;;12.20;57.40;;;;;;5074449;28;20473;-69
2021/05/05 12:22:28;;;;;;;3.20;0.87;;;11.90;59.10;;;;;;5073953;28;20502;-69
2021/05/05 12:25:13;;;;;;;1.03;0.80;;;11.60;60.40;;;;;;5074081;28;20436;-69
2021/05/05 12:28:02;;;;;;;1.40;1.00;;;11.40;63.70;;;;;;5074288;28;20794;-68
2021/05/05 12:30:47;;;;;;;1.30;1.00;;;11.10;65.70;;;;;;5074540;28;20522;-68
2021/05/05 12:33:18;;;;;;;1.77;0.90;;;11.10;65.80;;;;;;5074909;28;20786;-68
2021/05/05 12:35:45;;;;;;;2.37;1.10;;;11.30;67.90;;;;;;5074316;28;20468;-68
2021/05/05 12:38:14;;;;;;;1.50;1.40;;;11.50;66.30;;;;;;5074224;28;20448;-68
2021/05/05 12:40:41;;;;;;;2.10;1.87;;;11.60;64.80;;;;;;5074543;28;20492;-68
2021/05/05 12:43:17;;;;;;;3.47;1.90;;;11.60;64.60;;;;;;5073856;28;20449;-68
2021/05/05 12:45:45;;;;;;;4.50;1.80;;;11.20;65.30;;;;;;5073808;28;20845;-67
2021/05/05 12:48:12;;;;;;;2.57;2.07;;;10.80;67.50;;;;;;5074197;28;20813;-67
2021/05/05 12:50:45;;;;;;;3.37;2.00;;;10.50;68.80;;;;;;5073726;28;20502;-68
2021/05/05 12:53:11;;;;;;;8.93;2.20;;;10.30;69.60;;;;;;5073104;28;20510;-68
2021/05/05 12:55:40;;;;;;;2.77;1.83;;;10.40;69.10;;;;;;5074012;28;20467;-68
2021/05/05 12:58:11;;;;;;;3.63;1.60;;;11.70;69.50;;;;;;5074150;28;20498;-67
2021/05/05 13:00:39;;;;;;;4.03;1.70;;;13.20;59.00;;;;;;5073498;28;20481;-67
2021/05/05 13:03:11;;;;;;;5.27;2.20;;;14.70;56.90;;;;;;5073547;28;20433;-68